sensor_id;sensor_type;location;lat;lon;timestamp;temperature;humidity
20284;DHT22;10301;50.832;4.080;2023-10-08T00:01:09;16.50;60.40
20284;DHT22;10301;50.832;4.080;2023-10-08T00:03:38;16.40;1.00
20284;DHT22;10301;50.832;4.080;2023-10-08T00:06:06;16.60;1.00
20284;DHT22;10301;50.832;4.080;2023-10-08T00:08:33;16.70;1.00
20284;DHT22;10301;50.832;4.080;2023-10-08T00:10:58;16.30;1.00
20284;DHT22;10301;50.832;4.080;2023-10-08T00:13:32;16.30;1.00
20284;DHT22;10301;50.832;4.080;2023-10-08T00:16:05;16.50;50.30
20284;DHT22;10301;50.832;4.080;2023-10-08T00:18:34;16.60;1.00
20284;DHT22;10301;50.832;4.080;2023-10-08T00:21:00;16.60;1.00
20284;DHT22;10301;50.832;4.080;2023-10-08T00:23:49;16.40;99.90
20284;DHT22;10301;50.832;4.080;2023-10-08T00:26:23;16.40;1.00
20284;DHT22;10301;50.832;4.080;2023-10-08T00:29:05;16.40;1.00
20284;DHT22;10301;50.832;4.080;2023-10-08T00:31:44;16.50;99.90
20284;DHT22;10301;50.832;4.080;2023-10-08T00:34:14;16.30;1.00
20284;DHT22;10301;50.832;4.080;2023-10-08T00:36:45;16.40;1.00
20284;DHT22;10301;50.832;4.080;2023-10-08T00:39:12;16.30;1.00
20284;DHT22;10301;50.832;4.080;2023-10-08T00:41:48;16.40;1.00
20284;DHT22;10301;50.832;4.080;2023-10-08T00:44:15;16.60;1.00
20284;DHT22;10301;50.832;4.080;2023-10-08T00:46:47;16.50;1.00
20284;DHT22;10301;50.832;4.080;2023-10-08T00:49:16;16.60;1.00
20284;DHT22;10301;50.832;4.080;2023-10-08T00:51:48;16.60;1.00
20284;DHT22;10301;50.832;4.080;2023-10-08T00:54:26;16.30;99.90
20284;DHT22;10301;50.832;4.080;2023-10-08T00:56:53;16.30;1.00
20284;DHT22;10301;50.832;4.080;2023-10-08T00:59:26;16.20;1.00
20284;DHT22;10301;50.832;4.080;2023-10-08T01:01:52;16.20;69.00
20284;DHT22;10301;50.832;4.080;2023-10-08T01:04:26;16.30;1.00
20284;DHT22;10301;50.832;4.080;2023-10-08T01:06:57;16.20;1.00
20284;DHT22;10301;50.832;4.080;2023-10-08T01:09:27;16.10;99.90
20284;DHT22;10301;50.832;4.080;2023-10-08T01:12:13;16.20;99.90
20284;DHT22;10301;50.832;4.080;2023-10-08T01:14:59;16.00;99.90
20284;DHT22;10301;50.832;4.080;2023-10-08T01:17:44;16.00;1.00
20284;DHT22;10301;50.832;4.080;2023-10-08T01:20:18;16.00;1.00
20284;DHT22;10301;50.832;4.080;2023-10-08T01:23:11;15.90;1.00
20284;DHT22;10301;50.832;4.080;2023-10-08T01:25:39;15.90;1.00
20284;DHT22;10301;50.832;4.080;2023-10-08T01:28:06;15.90;1.00
20284;DHT22;10301;50.832;4.080;2023-10-08T01:30:43;15.80;1.00
20284;DHT22;10301;50.832;4.080;2023-10-08T01:33:13;15.80;1.00
20284;DHT22;10301;50.832;4.080;2023-10-08T01:35:46;15.80;1.00
20284;DHT22;10301;50.832;4.080;2023-10-08T01:38:14;15.90;1.00
20284;DHT22;10301;50.832;4.080;2023-10-08T01:40:43;16.00;1.00
20284;DHT22;10301;50.832;4.080;2023-10-08T01:43:09;15.80;1.00
20284;DHT22;10301;50.832;4.080;2023-10-08T01:45:37;15.60;99.90
20284;DHT22;10301;50.832;4.080;2023-10-08T01:48:07;15.40;99.90
20284;DHT22;10301;50.832;4.080;2023-10-08T01:50:35;15.20;1.00
20284;DHT22;10301;50.832;4.080;2023-10-08T01:53:01;15.30;1.00
20284;DHT22;10301;50.832;4.080;2023-10-08T01:55:26;15.60;99.90
20284;DHT22;10301;50.832;4.080;2023-10-08T01:57:52;15.60;99.90
20284;DHT22;10301;50.832;4.080;2023-10-08T02:00:18;15.70;99.90
20284;DHT22;10301;50.832;4.080;2023-10-08T02:02:46;15.80;99.90
20284;DHT22;10301;50.832;4.080;2023-10-08T02:05:12;15.90;6.60
20284;DHT22;10301;50.832;4.080;2023-10-08T02:07:41;15.70;99.90
20284;DHT22;10301;50.832;4.080;2023-10-08T02:10:10;15.70;99.90
20284;DHT22;10301;50.832;4.080;2023-10-08T02:12:43;15.80;99.90
20284;DHT22;10301;50.832;4.080;2023-10-08T02:15:09;15.80;99.90
20284;DHT22;10301;50.832;4.080;2023-10-08T02:17:37;15.30;1.00
20284;DHT22;10301;50.832;4.080;2023-10-08T02:20:04;15.30;1.00
20284;DHT22;10301;50.832;4.080;2023-10-08T02:22:31;15.30;1.00
20284;DHT22;10301;50.832;4.080;2023-10-08T02:24:58;15.50;1.00
20284;DHT22;10301;50.832;4.080;2023-10-08T02:27:27;15.50;99.90
20284;DHT22;10301;50.832;4.080;2023-10-08T02:29:53;15.50;99.90
20284;DHT22;10301;50.832;4.080;2023-10-08T02:32:20;15.60;99.90
20284;DHT22;10301;50.832;4.080;2023-10-08T02:34:48;15.50;99.90
20284;DHT22;10301;50.832;4.080;2023-10-08T02:37:15;15.50;99.90
20284;DHT22;10301;50.832;4.080;2023-10-08T02:39:40;15.40;1.00
20284;DHT22;10301;50.832;4.080;2023-10-08T02:42:06;15.50;1.00
20284;DHT22;10301;50.832;4.080;2023-10-08T02:44:36;15.50;1.00
20284;DHT22;10301;50.832;4.080;2023-10-08T02:47:10;15.60;99.90
20284;DHT22;10301;50.832;4.080;2023-10-08T02:49:42;15.70;99.90
20284;DHT22;10301;50.832;4.080;2023-10-08T02:52:08;15.70;99.90
20284;DHT22;10301;50.832;4.080;2023-10-08T02:54:36;15.50;1.00
20284;DHT22;10301;50.832;4.080;2023-10-08T02:57:03;15.60;1.00
20284;DHT22;10301;50.832;4.080;2023-10-08T02:59:33;15.50;1.00
20284;DHT22;10301;50.832;4.080;2023-10-08T03:02:11;15.50;1.00
20284;DHT22;10301;50.832;4.080;2023-10-08T03:04:55;15.50;1.00
20284;DHT22;10301;50.832;4.080;2023-10-08T03:07:20;15.50;1.00
20284;DHT22;10301;50.832;4.080;2023-10-08T03:09:47;15.30;1.00
20284;DHT22;10301;50.832;4.080;2023-10-08T03:12:15;15.30;1.00
20284;DHT22;10301;50.832;4.080;2023-10-08T03:14:42;15.30;1.00
20284;DHT22;10301;50.832;4.080;2023-10-08T03:17:30;15.30;1.00
20284;DHT22;10301;50.832;4.080;2023-10-08T03:19:56;15.40;1.00
20284;DHT22;10301;50.832;4.080;2023-10-08T03:22:47;15.20;1.00
20284;DHT22;10301;50.832;4.080;2023-10-08T03:25:13;15.50;1.00
20284;DHT22;10301;50.832;4.080;2023-10-08T03:27:43;15.40;1.00
20284;DHT22;10301;50.832;4.080;2023-10-08T03:30:09;15.60;1.00
20284;DHT22;10301;50.832;4.080;2023-10-08T03:32:43;15.40;1.00
20284;DHT22;10301;50.832;4.080;2023-10-08T03:35:20;15.40;1.00
20284;DHT22;10301;50.832;4.080;2023-10-08T03:37:53;15.30;1.00
20284;DHT22;10301;50.832;4.080;2023-10-08T03:40:20;15.40;1.00
20284;DHT22;10301;50.832;4.080;2023-10-08T03:42:48;15.60;1.00
20284;DHT22;10301;50.832;4.080;2023-10-08T03:45:15;15.60;1.00
20284;DHT22;10301;50.832;4.080;2023-10-08T03:47:48;15.70;1.00
20284;DHT22;10301;50.832;4.080;2023-10-08T03:50:29;15.70;1.00
20284;DHT22;10301;50.832;4.080;2023-10-08T03:53:07;15.70;1.00
20284;DHT22;10301;50.832;4.080;2023-10-08T03:55:41;15.60;1.00
20284;DHT22;10301;50.832;4.080;2023-10-08T03:58:08;15.60;1.00
20284;DHT22;10301;50.832;4.080;2023-10-08T04:00:37;15.60;1.00
20284;DHT22;10301;50.832;4.080;2023-10-08T04:03:08;15.50;1.00
20284;DHT22;10301;50.832;4.080;2023-10-08T04:05:37;15.50;1.00
20284;DHT22;10301;50.832;4.080;2023-10-08T04:08:10;15.60;1.00
20284;DHT22;10301;50.832;4.080;2023-10-08T04:11:11;15.50;1.00
20284;DHT22;10301;50.832;4.080;2023-10-08T04:13:55;15.50;1.00
20284;DHT22;10301;50.832;4.080;2023-10-08T04:16:25;15.30;1.00
20284;DHT22;10301;50.832;4.080;2023-10-08T04:18:53;15.30;1.00
20284;DHT22;10301;50.832;4.080;2023-10-08T04:21:22;15.30;1.00
20284;DHT22;10301;50.832;4.080;2023-10-08T04:23:48;15.30;1.00
20284;DHT22;10301;50.832;4.080;2023-10-08T04:26:17;15.40;1.00
20284;DHT22;10301;50.832;4.080;2023-10-08T04:28:52;15.50;1.00
20284;DHT22;10301;50.832;4.080;2023-10-08T04:31:22;15.50;1.00
20284;DHT22;10301;50.832;4.080;2023-10-08T04:33:54;15.50;1.00
20284;DHT22;10301;50.832;4.080;2023-10-08T04:36:20;15.40;1.00
20284;DHT22;10301;50.832;4.080;2023-10-08T04:38:46;15.40;1.00
20284;DHT22;10301;50.832;4.080;2023-10-08T04:41:20;15.50;1.00
20284;DHT22;10301;50.832;4.080;2023-10-08T04:43:48;15.40;1.00
20284;DHT22;10301;50.832;4.080;2023-10-08T04:46:15;15.30;1.00
20284;DHT22;10301;50.832;4.080;2023-10-08T04:48:59;15.40;1.00
20284;DHT22;10301;50.832;4.080;2023-10-08T04:51:30;15.50;1.00
20284;DHT22;10301;50.832;4.080;2023-10-08T04:54:00;15.60;1.00
20284;DHT22;10301;50.832;4.080;2023-10-08T04:56:30;15.40;1.00
20284;DHT22;10301;50.832;4.080;2023-10-08T04:58:58;15.50;1.00
20284;DHT22;10301;50.832;4.080;2023-10-08T05:01:24;15.50;1.00
20284;DHT22;10301;50.832;4.080;2023-10-08T05:04:05;15.40;1.00
20284;DHT22;10301;50.832;4.080;2023-10-08T05:06:33;15.40;1.00
20284;DHT22;10301;50.832;4.080;2023-10-08T05:09:06;15.40;1.00
20284;DHT22;10301;50.832;4.080;2023-10-08T05:11:49;15.50;1.00
20284;DHT22;10301;50.832;4.080;2023-10-08T05:14:18;15.20;1.00
20284;DHT22;10301;50.832;4.080;2023-10-08T05:17:08;15.30;1.00
20284;DHT22;10301;50.832;4.080;2023-10-08T05:19:48;15.00;1.00
20284;DHT22;10301;50.832;4.080;2023-10-08T05:22:23;14.80;1.00
20284;DHT22;10301;50.832;4.080;2023-10-08T05:24:58;14.80;1.00
20284;DHT22;10301;50.832;4.080;2023-10-08T05:27:45;14.70;1.00
20284;DHT22;10301;50.832;4.080;2023-10-08T05:30:18;14.70;1.00
20284;DHT22;10301;50.832;4.080;2023-10-08T05:32:56;14.80;1.00
20284;DHT22;10301;50.832;4.080;2023-10-08T05:35:35;14.90;1.00
20284;DHT22;10301;50.832;4.080;2023-10-08T05:38:14;15.00;1.00
20284;DHT22;10301;50.832;4.080;2023-10-08T05:41:03;15.00;1.00
20284;DHT22;10301;50.832;4.080;2023-10-08T05:43:31;14.90;1.00
20284;DHT22;10301;50.832;4.080;2023-10-08T05:46:22;15.00;1.00
20284;DHT22;10301;50.832;4.080;2023-10-08T05:51:49;15.10;1.00
20284;DHT22;10301;50.832;4.080;2023-10-08T05:54:25;15.10;1.00
20284;DHT22;10301;50.832;4.080;2023-10-08T05:57:07;15.20;1.00
20284;DHT22;10301;50.832;4.080;2023-10-08T05:59:37;15.20;1.00
20284;DHT22;10301;50.832;4.080;2023-10-08T06:02:31;15.30;1.00
20284;DHT22;10301;50.832;4.080;2023-10-08T06:05:04;15.20;1.00
20284;DHT22;10301;50.832;4.080;2023-10-08T06:07:44;15.20;1.00
20284;DHT22;10301;50.832;4.080;2023-10-08T06:10:29;15.20;1.00
20284;DHT22;10301;50.832;4.080;2023-10-08T06:13:01;15.30;1.00
20284;DHT22;10301;50.832;4.080;2023-10-08T06:15:43;15.20;1.00
20284;DHT22;10301;50.832;4.080;2023-10-08T06:18:23;15.00;1.00
20284;DHT22;10301;50.832;4.080;2023-10-08T06:20:52;15.30;1.00
20284;DHT22;10301;50.832;4.080;2023-10-08T06:23:24;15.50;1.00
20284;DHT22;10301;50.832;4.080;2023-10-08T06:25:52;15.80;1.00
20284;DHT22;10301;50.832;4.080;2023-10-08T06:28:37;15.70;1.00
20284;DHT22;10301;50.832;4.080;2023-10-08T06:31:04;15.40;1.00
20284;DHT22;10301;50.832;4.080;2023-10-08T06:33:38;15.60;1.00
20284;DHT22;10301;50.832;4.080;2023-10-08T06:36:04;15.70;1.00
20284;DHT22;10301;50.832;4.080;2023-10-08T06:38:37;15.90;1.00
20284;DHT22;10301;50.832;4.080;2023-10-08T06:41:05;16.00;1.00
20284;DHT22;10301;50.832;4.080;2023-10-08T06:43:51;16.10;1.00
20284;DHT22;10301;50.832;4.080;2023-10-08T06:46:28;16.00;1.00
20284;DHT22;10301;50.832;4.080;2023-10-08T06:49:06;16.00;1.00
20284;DHT22;10301;50.832;4.080;2023-10-08T06:51:37;16.10;1.00
20284;DHT22;10301;50.832;4.080;2023-10-08T06:54:03;16.30;1.00
20284;DHT22;10301;50.832;4.080;2023-10-08T06:56:29;16.50;1.00
20284;DHT22;10301;50.832;4.080;2023-10-08T06:58:56;16.60;1.00
20284;DHT22;10301;50.832;4.080;2023-10-08T07:01:24;16.70;1.00
20284;DHT22;10301;50.832;4.080;2023-10-08T07:03:56;16.80;1.00
20284;DHT22;10301;50.832;4.080;2023-10-08T07:06:29;16.70;1.00
20284;DHT22;10301;50.832;4.080;2023-10-08T07:09:00;16.80;1.00
20284;DHT22;10301;50.832;4.080;2023-10-08T07:11:34;16.90;1.00
20284;DHT22;10301;50.832;4.080;2023-10-08T07:14:04;16.80;1.00
20284;DHT22;10301;50.832;4.080;2023-10-08T07:16:30;16.80;1.00
20284;DHT22;10301;50.832;4.080;2023-10-08T07:18:56;16.70;1.00
20284;DHT22;10301;50.832;4.080;2023-10-08T07:21:41;16.70;1.00
20284;DHT22;10301;50.832;4.080;2023-10-08T07:24:15;17.00;1.00
20284;DHT22;10301;50.832;4.080;2023-10-08T07:26:45;17.20;1.00
20284;DHT22;10301;50.832;4.080;2023-10-08T07:29:16;17.40;1.00
20284;DHT22;10301;50.832;4.080;2023-10-08T07:31:45;17.40;1.00
20284;DHT22;10301;50.832;4.080;2023-10-08T07:34:17;17.40;1.00
20284;DHT22;10301;50.832;4.080;2023-10-08T07:36:47;17.50;1.00
20284;DHT22;10301;50.832;4.080;2023-10-08T07:39:14;17.70;1.00
20284;DHT22;10301;50.832;4.080;2023-10-08T07:42:02;17.90;1.00
20284;DHT22;10301;50.832;4.080;2023-10-08T07:44:31;18.00;1.00
20284;DHT22;10301;50.832;4.080;2023-10-08T07:46:57;18.10;99.90
20284;DHT22;10301;50.832;4.080;2023-10-08T07:49:26;17.90;1.00
20284;DHT22;10301;50.832;4.080;2023-10-08T07:51:56;17.90;1.00
20284;DHT22;10301;50.832;4.080;2023-10-08T07:54:23;17.90;1.00
20284;DHT22;10301;50.832;4.080;2023-10-08T07:56:50;18.00;99.90
20284;DHT22;10301;50.832;4.080;2023-10-08T07:59:25;18.00;99.90
20284;DHT22;10301;50.832;4.080;2023-10-08T08:01:50;17.90;1.00
20284;DHT22;10301;50.832;4.080;2023-10-08T08:04:19;18.00;1.00
20284;DHT22;10301;50.832;4.080;2023-10-08T08:06:51;17.90;1.00
20284;DHT22;10301;50.832;4.080;2023-10-08T08:09:18;18.00;1.00
20284;DHT22;10301;50.832;4.080;2023-10-08T08:11:46;18.00;1.00
20284;DHT22;10301;50.832;4.080;2023-10-08T08:14:13;18.00;1.00
20284;DHT22;10301;50.832;4.080;2023-10-08T08:16:43;18.20;1.00
20284;DHT22;10301;50.832;4.080;2023-10-08T08:19:11;18.20;1.00
20284;DHT22;10301;50.832;4.080;2023-10-08T08:21:38;18.30;1.00
20284;DHT22;10301;50.832;4.080;2023-10-08T08:24:13;18.40;1.00
20284;DHT22;10301;50.832;4.080;2023-10-08T08:26:47;18.50;1.00
20284;DHT22;10301;50.832;4.080;2023-10-08T08:29:27;18.50;1.00
20284;DHT22;10301;50.832;4.080;2023-10-08T08:31:54;18.50;1.00
20284;DHT22;10301;50.832;4.080;2023-10-08T08:34:23;18.60;99.90
20284;DHT22;10301;50.832;4.080;2023-10-08T08:36:49;18.70;99.90
20284;DHT22;10301;50.832;4.080;2023-10-08T08:39:16;18.70;99.90
20284;DHT22;10301;50.832;4.080;2023-10-08T08:42:01;18.70;99.90
20284;DHT22;10301;50.832;4.080;2023-10-08T08:44:31;18.80;99.90
20284;DHT22;10301;50.832;4.080;2023-10-08T08:47:00;18.90;99.90
20284;DHT22;10301;50.832;4.080;2023-10-08T08:49:35;19.00;99.90
20284;DHT22;10301;50.832;4.080;2023-10-08T08:52:04;19.10;99.90
20284;DHT22;10301;50.832;4.080;2023-10-08T08:54:30;19.20;99.90
20284;DHT22;10301;50.832;4.080;2023-10-08T08:57:01;19.00;1.00
20284;DHT22;10301;50.832;4.080;2023-10-08T08:59:30;19.20;99.90
20284;DHT22;10301;50.832;4.080;2023-10-08T09:01:59;19.30;99.90
20284;DHT22;10301;50.832;4.080;2023-10-08T09:04:30;19.40;99.90
20284;DHT22;10301;50.832;4.080;2023-10-08T09:06:56;19.50;1.00
20284;DHT22;10301;50.832;4.080;2023-10-08T09:09:23;19.40;81.00
20284;DHT22;10301;50.832;4.080;2023-10-08T09:11:56;19.40;1.00
20284;DHT22;10301;50.832;4.080;2023-10-08T09:14:24;19.30;99.90
20284;DHT22;10301;50.832;4.080;2023-10-08T09:16:58;19.30;99.90
20284;DHT22;10301;50.832;4.080;2023-10-08T09:19:25;19.10;1.00
20284;DHT22;10301;50.832;4.080;2023-10-08T09:22:09;19.10;1.00
20284;DHT22;10301;50.832;4.080;2023-10-08T09:24:37;19.30;99.90
20284;DHT22;10301;50.832;4.080;2023-10-08T09:27:07;19.60;99.90
20284;DHT22;10301;50.832;4.080;2023-10-08T09:29:36;19.70;1.00
20284;DHT22;10301;50.832;4.080;2023-10-08T09:32:06;19.60;99.90
20284;DHT22;10301;50.832;4.080;2023-10-08T09:34:33;19.60;99.90
20284;DHT22;10301;50.832;4.080;2023-10-08T09:37:00;19.70;99.90
20284;DHT22;10301;50.832;4.080;2023-10-08T09:39:28;19.70;99.90
20284;DHT22;10301;50.832;4.080;2023-10-08T09:41:57;19.70;99.90
20284;DHT22;10301;50.832;4.080;2023-10-08T09:44:24;19.70;99.90
20284;DHT22;10301;50.832;4.080;2023-10-08T09:47:07;19.80;99.90
20284;DHT22;10301;50.832;4.080;2023-10-08T09:49:56;19.90;99.90
20284;DHT22;10301;50.832;4.080;2023-10-08T09:52:31;20.10;99.90
20284;DHT22;10301;50.832;4.080;2023-10-08T09:55:08;20.00;99.90
20284;DHT22;10301;50.832;4.080;2023-10-08T09:57:36;20.20;99.90
20284;DHT22;10301;50.832;4.080;2023-10-08T10:00:04;20.30;99.90
20284;DHT22;10301;50.832;4.080;2023-10-08T10:02:33;20.30;99.90
20284;DHT22;10301;50.832;4.080;2023-10-08T10:04:59;20.30;99.90
20284;DHT22;10301;50.832;4.080;2023-10-08T10:07:26;20.30;99.90
20284;DHT22;10301;50.832;4.080;2023-10-08T10:09:54;20.20;99.90
20284;DHT22;10301;50.832;4.080;2023-10-08T10:12:27;20.30;99.90
20284;DHT22;10301;50.832;4.080;2023-10-08T10:14:56;20.30;99.90
20284;DHT22;10301;50.832;4.080;2023-10-08T10:17:27;20.20;99.90
20284;DHT22;10301;50.832;4.080;2023-10-08T10:19:59;20.40;99.90
20284;DHT22;10301;50.832;4.080;2023-10-08T10:22:33;20.20;1.00
20284;DHT22;10301;50.832;4.080;2023-10-08T10:25:01;20.40;99.90
20284;DHT22;10301;50.832;4.080;2023-10-08T10:27:41;20.50;99.90
20284;DHT22;10301;50.832;4.080;2023-10-08T10:30:08;20.70;99.90
20284;DHT22;10301;50.832;4.080;2023-10-08T10:32:38;20.80;99.90
20284;DHT22;10301;50.832;4.080;2023-10-08T10:35:04;20.90;77.70
20284;DHT22;10301;50.832;4.080;2023-10-08T10:37:37;20.70;99.90
20284;DHT22;10301;50.832;4.080;2023-10-08T10:40:07;20.70;99.90
20284;DHT22;10301;50.832;4.080;2023-10-08T10:42:38;20.80;99.90
20284;DHT22;10301;50.832;4.080;2023-10-08T10:45:17;20.80;99.90
20284;DHT22;10301;50.832;4.080;2023-10-08T10:48:04;20.70;1.00
20284;DHT22;10301;50.832;4.080;2023-10-08T10:50:42;20.70;1.00
20284;DHT22;10301;50.832;4.080;2023-10-08T10:53:38;20.60;1.00
20284;DHT22;10301;50.832;4.080;2023-10-08T10:56:17;20.80;1.00
20284;DHT22;10301;50.832;4.080;2023-10-08T10:58:59;20.80;99.90
20284;DHT22;10301;50.832;4.080;2023-10-08T11:01:28;20.90;99.90
20284;DHT22;10301;50.832;4.080;2023-10-08T11:04:10;20.50;1.00
20284;DHT22;10301;50.832;4.080;2023-10-08T11:06:42;20.50;1.00
20284;DHT22;10301;50.832;4.080;2023-10-08T11:09:10;20.30;1.00
20284;DHT22;10301;50.832;4.080;2023-10-08T11:11:56;20.50;1.00
20284;DHT22;10301;50.832;4.080;2023-10-08T11:14:25;20.60;1.00
20284;DHT22;10301;50.832;4.080;2023-10-08T11:16:51;20.50;1.00
20284;DHT22;10301;50.832;4.080;2023-10-08T11:19:19;20.70;1.00
20284;DHT22;10301;50.832;4.080;2023-10-08T11:21:49;20.80;1.00
20284;DHT22;10301;50.832;4.080;2023-10-08T11:24:27;21.00;1.00
20284;DHT22;10301;50.832;4.080;2023-10-08T11:26:53;21.30;99.90
20284;DHT22;10301;50.832;4.080;2023-10-08T11:29:37;21.40;33.10
20284;DHT22;10301;50.832;4.080;2023-10-08T11:32:04;20.90;1.00
20284;DHT22;10301;50.832;4.080;2023-10-08T11:34:32;20.70;1.00
20284;DHT22;10301;50.832;4.080;2023-10-08T11:37:07;20.90;1.00
20284;DHT22;10301;50.832;4.080;2023-10-08T11:39:46;21.00;1.00
20284;DHT22;10301;50.832;4.080;2023-10-08T11:42:12;21.50;99.90
20284;DHT22;10301;50.832;4.080;2023-10-08T11:44:57;21.70;1.00
20284;DHT22;10301;50.832;4.080;2023-10-08T11:47:26;21.80;1.00
20284;DHT22;10301;50.832;4.080;2023-10-08T11:49:57;21.70;99.90
20284;DHT22;10301;50.832;4.080;2023-10-08T11:52:36;21.70;1.00
20284;DHT22;10301;50.832;4.080;2023-10-08T11:55:11;21.90;1.00
20284;DHT22;10301;50.832;4.080;2023-10-08T11:57:47;21.80;1.00
20284;DHT22;10301;50.832;4.080;2023-10-08T12:00:15;21.90;1.00
20284;DHT22;10301;50.832;4.080;2023-10-08T12:02:51;21.90;1.00
20284;DHT22;10301;50.832;4.080;2023-10-08T12:05:20;21.90;1.00
20284;DHT22;10301;50.832;4.080;2023-10-08T12:07:52;22.20;1.00
20284;DHT22;10301;50.832;4.080;2023-10-08T12:10:19;22.10;2.30
20284;DHT22;10301;50.832;4.080;2023-10-08T12:12:52;22.10;1.00
20284;DHT22;10301;50.832;4.080;2023-10-08T12:15:21;22.20;1.00
20284;DHT22;10301;50.832;4.080;2023-10-08T12:17:50;22.20;1.00
20284;DHT22;10301;50.832;4.080;2023-10-08T12:20:38;22.20;1.00
20284;DHT22;10301;50.832;4.080;2023-10-08T12:23:05;22.40;1.00
20284;DHT22;10301;50.832;4.080;2023-10-08T12:25:32;22.60;99.90
20284;DHT22;10301;50.832;4.080;2023-10-08T12:28:01;22.50;1.00
20284;DHT22;10301;50.832;4.080;2023-10-08T12:30:33;22.60;1.00
20284;DHT22;10301;50.832;4.080;2023-10-08T12:33:07;22.80;99.90
20284;DHT22;10301;50.832;4.080;2023-10-08T12:35:33;22.40;99.90
20284;DHT22;10301;50.832;4.080;2023-10-08T12:37:58;22.50;1.00
20284;DHT22;10301;50.832;4.080;2023-10-08T12:40:24;22.70;68.40
20284;DHT22;10301;50.832;4.080;2023-10-08T12:42:53;22.80;1.00
20284;DHT22;10301;50.832;4.080;2023-10-08T12:45:19;22.80;1.00
20284;DHT22;10301;50.832;4.080;2023-10-08T12:47:52;22.80;99.90
20284;DHT22;10301;50.832;4.080;2023-10-08T12:50:19;22.90;1.00
20284;DHT22;10301;50.832;4.080;2023-10-08T12:52:57;22.80;1.00
20284;DHT22;10301;50.832;4.080;2023-10-08T12:55:29;22.80;1.00
20284;DHT22;10301;50.832;4.080;2023-10-08T12:57:56;22.60;1.00
20284;DHT22;10301;50.832;4.080;2023-10-08T13:00:31;22.70;99.90
20284;DHT22;10301;50.832;4.080;2023-10-08T13:02:57;22.90;1.00
20284;DHT22;10301;50.832;4.080;2023-10-08T13:05:23;23.10;1.00
20284;DHT22;10301;50.832;4.080;2023-10-08T13:07:56;23.30;84.90
20284;DHT22;10301;50.832;4.080;2023-10-08T13:10:25;23.40;1.00
20284;DHT22;10301;50.832;4.080;2023-10-08T13:12:51;23.40;99.90
20284;DHT22;10301;50.832;4.080;2023-10-08T13:15:17;23.40;1.00
20284;DHT22;10301;50.832;4.080;2023-10-08T13:17:43;23.30;99.90
20284;DHT22;10301;50.832;4.080;2023-10-08T13:20:12;23.20;99.90
20284;DHT22;10301;50.832;4.080;2023-10-08T13:22:41;23.30;99.90
20284;DHT22;10301;50.832;4.080;2023-10-08T13:25:11;23.40;1.00
20284;DHT22;10301;50.832;4.080;2023-10-08T13:27:38;23.00;1.00
20284;DHT22;10301;50.832;4.080;2023-10-08T13:30:07;22.90;99.90
20284;DHT22;10301;50.832;4.080;2023-10-08T13:32:35;22.90;99.90
20284;DHT22;10301;50.832;4.080;2023-10-08T13:35:05;22.60;1.00
20284;DHT22;10301;50.832;4.080;2023-10-08T13:37:35;22.80;99.90
20284;DHT22;10301;50.832;4.080;2023-10-08T13:40:01;23.10;70.20
20284;DHT22;10301;50.832;4.080;2023-10-08T13:42:27;23.00;99.90
20284;DHT22;10301;50.832;4.080;2023-10-08T13:44:56;23.00;1.00
20284;DHT22;10301;50.832;4.080;2023-10-08T13:47:25;23.20;1.00
20284;DHT22;10301;50.832;4.080;2023-10-08T13:49:55;23.50;10.80
20284;DHT22;10301;50.832;4.080;2023-10-08T13:52:23;23.50;98.30
20284;DHT22;10301;50.832;4.080;2023-10-08T13:54:52;23.50;99.90
20284;DHT22;10301;50.832;4.080;2023-10-08T13:57:21;23.50;99.90
20284;DHT22;10301;50.832;4.080;2023-10-08T13:59:47;23.40;1.00
20284;DHT22;10301;50.832;4.080;2023-10-08T14:02:14;23.30;1.00
20284;DHT22;10301;50.832;4.080;2023-10-08T14:04:43;23.30;1.00
20284;DHT22;10301;50.832;4.080;2023-10-08T14:07:12;22.90;1.00
20284;DHT22;10301;50.832;4.080;2023-10-08T14:09:43;22.90;1.00
20284;DHT22;10301;50.832;4.080;2023-10-08T14:12:12;23.10;99.90
20284;DHT22;10301;50.832;4.080;2023-10-08T14:14:39;23.30;1.00
20284;DHT22;10301;50.832;4.080;2023-10-08T14:17:11;23.50;1.00
20284;DHT22;10301;50.832;4.080;2023-10-08T14:19:41;23.60;99.90
20284;DHT22;10301;50.832;4.080;2023-10-08T14:22:18;23.80;1.00
20284;DHT22;10301;50.832;4.080;2023-10-08T14:24:47;23.60;99.90
20284;DHT22;10301;50.832;4.080;2023-10-08T14:27:26;23.80;1.00
20284;DHT22;10301;50.832;4.080;2023-10-08T14:29:59;23.90;1.00
20284;DHT22;10301;50.832;4.080;2023-10-08T14:32:30;23.80;1.00
20284;DHT22;10301;50.832;4.080;2023-10-08T14:34:58;23.70;1.00
20284;DHT22;10301;50.832;4.080;2023-10-08T14:37:23;23.60;50.50
20284;DHT22;10301;50.832;4.080;2023-10-08T14:40:08;23.60;99.90
20284;DHT22;10301;50.832;4.080;2023-10-08T14:42:52;23.70;99.90
20284;DHT22;10301;50.832;4.080;2023-10-08T14:45:22;23.50;1.00
20284;DHT22;10301;50.832;4.080;2023-10-08T14:47:55;23.60;1.00
20284;DHT22;10301;50.832;4.080;2023-10-08T14:50:22;23.50;99.90
20284;DHT22;10301;50.832;4.080;2023-10-08T14:52:48;23.60;1.00
20284;DHT22;10301;50.832;4.080;2023-10-08T14:55:14;23.50;99.90
20284;DHT22;10301;50.832;4.080;2023-10-08T14:57:41;23.40;1.00
20284;DHT22;10301;50.832;4.080;2023-10-08T15:00:10;23.20;99.90
20284;DHT22;10301;50.832;4.080;2023-10-08T15:02:37;23.40;1.00
20284;DHT22;10301;50.832;4.080;2023-10-08T15:05:05;23.50;1.00
20284;DHT22;10301;50.832;4.080;2023-10-08T15:07:31;23.50;97.20
20284;DHT22;10301;50.832;4.080;2023-10-08T15:09:58;23.40;1.00
20284;DHT22;10301;50.832;4.080;2023-10-08T15:12:29;23.50;99.90
20284;DHT22;10301;50.832;4.080;2023-10-08T15:15:00;23.60;1.00
20284;DHT22;10301;50.832;4.080;2023-10-08T15:17:39;23.50;99.90
20284;DHT22;10301;50.832;4.080;2023-10-08T15:20:05;23.60;1.00
20284;DHT22;10301;50.832;4.080;2023-10-08T15:22:32;23.40;99.90
20284;DHT22;10301;50.832;4.080;2023-10-08T15:24:57;23.00;1.00
20284;DHT22;10301;50.832;4.080;2023-10-08T15:27:23;23.20;72.70
20284;DHT22;10301;50.832;4.080;2023-10-08T15:29:49;23.40;99.90
20284;DHT22;10301;50.832;4.080;2023-10-08T15:32:14;23.40;99.90
20284;DHT22;10301;50.832;4.080;2023-10-08T15:34:40;23.60;99.90
20284;DHT22;10301;50.832;4.080;2023-10-08T15:37:07;23.60;1.00
20284;DHT22;10301;50.832;4.080;2023-10-08T15:39:32;23.80;99.90
20284;DHT22;10301;50.832;4.080;2023-10-08T15:41:58;23.80;1.00
20284;DHT22;10301;50.832;4.080;2023-10-08T15:44:24;23.60;1.00
20284;DHT22;10301;50.832;4.080;2023-10-08T15:46:50;23.70;1.00
20284;DHT22;10301;50.832;4.080;2023-10-08T15:49:17;23.90;1.00
20284;DHT22;10301;50.832;4.080;2023-10-08T15:51:45;23.60;99.90
20284;DHT22;10301;50.832;4.080;2023-10-08T15:54:13;23.50;1.00
20284;DHT22;10301;50.832;4.080;2023-10-08T15:56:38;23.50;1.00
20284;DHT22;10301;50.832;4.080;2023-10-08T15:59:04;23.50;99.90
20284;DHT22;10301;50.832;4.080;2023-10-08T16:01:30;23.50;99.90
20284;DHT22;10301;50.832;4.080;2023-10-08T16:03:56;23.60;1.00
20284;DHT22;10301;50.832;4.080;2023-10-08T16:06:22;23.50;1.00
20284;DHT22;10301;50.832;4.080;2023-10-08T16:08:48;23.40;1.00